createdAt,value
2024-01-28T00:01:25.897Z,88.20
2024-01-28T00:03:53.431Z,87.90
2024-01-28T00:06:20.860Z,87.90
2024-01-28T00:08:48.325Z,88.00
2024-01-28T00:11:15.592Z,88.10
2024-01-28T00:13:42.992Z,88.10
2024-01-28T00:16:17.244Z,88.40
2024-01-28T00:18:45.165Z,88.80
2024-01-28T00:21:12.741Z,89.20
2024-01-28T00:23:40.078Z,89.50
2024-01-28T00:26:08.423Z,89.60
2024-01-28T00:28:35.958Z,89.70
2024-01-28T00:31:03.324Z,89.60
2024-01-28T00:33:30.793Z,89.40
2024-01-28T00:35:58.163Z,89.30
2024-01-28T00:38:25.659Z,89.40
2024-01-28T00:40:52.982Z,89.50
2024-01-28T00:43:20.284Z,89.70
2024-01-28T00:45:47.638Z,89.40
2024-01-28T00:48:15.167Z,89.20
2024-01-28T00:50:42.642Z,88.90
2024-01-28T00:53:10.807Z,88.70
2024-01-28T00:55:37.996Z,88.60
2024-01-28T00:58:05.606Z,88.40
2024-01-28T01:00:33.094Z,88.10
2024-01-28T01:03:00.618Z,88.30
2024-01-28T01:05:27.865Z,88.50
2024-01-28T01:07:55.147Z,88.60
2024-01-28T01:10:27.201Z,88.80
2024-01-28T01:12:54.627Z,89.00
2024-01-28T01:15:21.934Z,89.10
2024-01-28T01:17:50.912Z,89.10
2024-01-28T01:20:20.848Z,88.80
2024-01-28T01:22:48.245Z,88.50
2024-01-28T01:25:16.048Z,88.30
2024-01-28T01:27:43.749Z,88.10
2024-01-28T01:30:11.760Z,88.00
2024-01-28T01:32:41.669Z,87.90
2024-01-28T01:35:10.284Z,87.30
2024-01-28T01:37:38.264Z,87.20
2024-01-28T01:40:06.693Z,87.10
2024-01-28T01:42:34.304Z,86.90
2024-01-28T01:45:01.718Z,86.70
2024-01-28T01:47:29.685Z,86.30
2024-01-28T01:49:57.168Z,85.90
2024-01-28T01:52:24.730Z,85.60
2024-01-28T01:54:54.237Z,85.60
2024-01-28T01:57:22.095Z,85.50
2024-01-28T01:59:50.610Z,85.60
2024-01-28T02:02:24.432Z,85.60
2024-01-28T02:04:52.178Z,85.50
2024-01-28T02:07:19.587Z,85.50
2024-01-28T02:09:47.340Z,85.50
2024-01-28T02:12:15.055Z,85.50
2024-01-28T02:14:42.410Z,85.30
2024-01-28T02:17:09.805Z,84.80
2024-01-28T02:19:37.313Z,84.70
2024-01-28T02:22:04.927Z,84.80
2024-01-28T02:24:32.502Z,84.80
2024-01-28T02:26:59.956Z,84.90
2024-01-28T02:29:27.325Z,85.10
2024-01-28T02:31:54.600Z,85.00
2024-01-28T02:34:22.163Z,84.80
2024-01-28T02:36:49.641Z,84.20
2024-01-28T02:39:17.069Z,83.80
2024-01-28T02:41:45.459Z,83.70
2024-01-28T02:44:12.707Z,83.80
2024-01-28T02:46:40.174Z,84.00
2024-01-28T02:49:07.494Z,84.20
2024-01-28T02:51:34.967Z,84.40
2024-01-28T02:54:03.462Z,84.40
2024-01-28T02:56:30.899Z,84.50
2024-01-28T02:58:58.192Z,84.40
2024-01-28T03:01:25.598Z,84.20
2024-01-28T03:03:52.954Z,84.10
2024-01-28T03:06:20.461Z,84.00
2024-01-28T03:08:47.819Z,84.00
2024-01-28T03:11:15.106Z,84.00
2024-01-28T03:13:42.416Z,84.20
2024-01-28T03:16:09.952Z,84.50
2024-01-28T03:18:37.267Z,84.90
2024-01-28T03:21:04.907Z,85.40
2024-01-28T03:23:32.133Z,85.60
2024-01-28T03:25:59.408Z,85.80
2024-01-28T03:28:26.801Z,86.40
2024-01-28T03:30:54.509Z,86.70
2024-01-28T03:33:22.713Z,86.90
2024-01-28T03:35:50.155Z,87.10
2024-01-28T03:38:18.631Z,87.60
2024-01-28T03:40:45.988Z,88.00
2024-01-28T03:43:13.417Z,88.20
2024-01-28T03:45:40.825Z,88.50
2024-01-28T03:48:08.449Z,88.40
2024-01-28T03:50:35.845Z,88.50
2024-01-28T03:53:03.525Z,88.80
2024-01-28T03:55:30.704Z,89.00
2024-01-28T03:57:59.143Z,89.10
2024-01-28T04:00:30.591Z,89.30
2024-01-28T04:02:58.241Z,89.60
2024-01-28T04:05:26.979Z,89.40
2024-01-28T04:07:54.265Z,89.40
2024-01-28T04:10:21.719Z,89.10
2024-01-28T04:12:49.285Z,88.70
2024-01-28T04:15:16.842Z,88.00
2024-01-28T04:17:44.171Z,87.10
2024-01-28T04:20:11.960Z,86.50
2024-01-28T04:22:39.366Z,85.90
2024-01-28T04:25:07.147Z,85.10
2024-01-28T04:27:34.502Z,84.80
2024-01-28T04:30:01.849Z,84.50
2024-01-28T04:32:29.126Z,84.40
2024-01-28T04:34:56.578Z,84.40
2024-01-28T04:37:24.734Z,84.30
2024-01-28T04:39:52.114Z,84.10
2024-01-28T04:42:25.777Z,83.90
2024-01-28T04:44:53.572Z,83.80
2024-01-28T04:47:20.944Z,83.70
2024-01-28T04:49:48.438Z,83.80
2024-01-28T04:52:15.834Z,83.70
2024-01-28T04:54:43.307Z,83.70
2024-01-28T04:57:11.339Z,83.80
2024-01-28T04:59:38.850Z,83.90
2024-01-28T05:02:07.260Z,84.10
2024-01-28T05:04:39.270Z,84.50
2024-01-28T05:07:07.724Z,84.70
2024-01-28T05:09:35.344Z,84.70
2024-01-28T05:12:02.838Z,84.50
2024-01-28T05:14:30.189Z,84.50
2024-01-28T05:17:00.037Z,84.50
2024-01-28T05:19:27.944Z,84.60
2024-01-28T05:21:55.533Z,84.80
2024-01-28T05:24:23.039Z,84.30
2024-01-28T05:26:50.449Z,84.20
2024-01-28T05:29:17.961Z,84.20
2024-01-28T05:31:45.399Z,84.30
2024-01-28T05:34:12.831Z,84.40
2024-01-28T05:36:40.121Z,84.60
2024-01-28T05:39:08.215Z,85.00
2024-01-28T05:41:35.545Z,85.40
2024-01-28T05:44:03.958Z,85.40
2024-01-28T05:46:31.200Z,85.80
2024-01-28T05:48:58.632Z,86.10
2024-01-28T05:51:28.345Z,86.50
2024-01-28T05:53:56.408Z,87.90
2024-01-28T05:56:23.948Z,88.20
2024-01-28T05:58:51.314Z,88.10
2024-01-28T06:01:18.898Z,88.20
2024-01-28T06:03:46.399Z,88.30
2024-01-28T06:06:13.739Z,88.10
2024-01-28T06:08:43.170Z,87.90
2024-01-28T06:11:10.751Z,87.90
2024-01-28T06:13:38.020Z,87.90
2024-01-28T06:16:07.614Z,87.90
2024-01-28T06:18:36.921Z,86.90
2024-01-28T06:21:04.245Z,85.40
2024-01-28T06:23:31.614Z,84.50
2024-01-28T06:25:58.918Z,83.80
2024-01-28T06:28:26.232Z,83.60
2024-01-28T06:30:53.580Z,83.40
2024-01-28T06:33:21.142Z,83.40
2024-01-28T06:35:48.551Z,83.30
2024-01-28T06:38:15.940Z,83.10
2024-01-28T06:40:43.306Z,82.90
2024-01-28T06:43:10.754Z,83.00
2024-01-28T06:45:38.236Z,82.90
2024-01-28T06:48:06.247Z,82.90
2024-01-28T06:50:33.591Z,82.90
2024-01-28T06:53:02.792Z,83.00
2024-01-28T06:55:30.104Z,83.10
2024-01-28T06:57:57.679Z,83.20
2024-01-28T07:00:25.118Z,83.10
2024-01-28T07:02:52.538Z,82.50
2024-01-28T07:05:20.069Z,81.70
2024-01-28T07:07:47.511Z,81.10
2024-01-28T07:10:14.942Z,80.90
2024-01-28T07:12:45.270Z,80.70
2024-01-28T07:15:12.818Z,80.40
2024-01-28T07:17:40.485Z,80.30
2024-01-28T07:20:08.641Z,80.20
2024-01-28T07:22:35.943Z,79.40
2024-01-28T07:25:04.079Z,79.20
2024-01-28T07:27:31.561Z,78.50
2024-01-28T07:29:59.328Z,78.10
2024-01-28T07:32:26.729Z,78.10
2024-01-28T07:34:54.227Z,78.00
2024-01-28T07:37:21.657Z,77.10
2024-01-28T07:39:49.224Z,76.50
2024-01-28T07:42:17.778Z,76.00
2024-01-28T07:44:46.867Z,75.80
2024-01-28T07:47:14.181Z,75.00
2024-01-28T07:49:41.640Z,74.00
2024-01-28T07:52:09.056Z,73.60
2024-01-28T07:54:37.723Z,73.70
2024-01-28T07:57:05.245Z,73.90
2024-01-28T07:59:32.794Z,74.40
2024-01-28T08:02:00.162Z,75.00
2024-01-28T08:04:30.549Z,75.30
2024-01-28T08:06:58.096Z,75.50
2024-01-28T08:09:25.602Z,75.20
2024-01-28T08:11:53.195Z,75.30
2024-01-28T08:14:20.555Z,75.30
2024-01-28T08:16:47.887Z,74.70
2024-01-28T08:19:15.261Z,73.80
2024-01-28T08:21:44.453Z,73.40
2024-01-28T08:24:11.807Z,73.20
2024-01-28T08:26:39.815Z,73.20
2024-01-28T08:29:07.221Z,72.20
2024-01-28T08:31:34.672Z,72.30
2024-01-28T08:34:02.146Z,72.60
2024-01-28T08:36:29.601Z,73.40
2024-01-28T08:38:57.082Z,73.70
2024-01-28T08:41:24.541Z,73.50
2024-01-28T08:43:51.998Z,73.20
2024-01-28T08:46:19.403Z,72.60
2024-01-28T08:48:46.837Z,72.00
2024-01-28T08:51:14.300Z,71.00
2024-01-28T08:53:43.738Z,69.90
2024-01-28T08:56:11.193Z,69.00
2024-01-28T08:58:38.683Z,70.10
2024-01-28T09:01:07.440Z,71.80
2024-01-28T09:03:35.073Z,71.90
2024-01-28T09:06:07.003Z,71.70
2024-01-28T09:08:34.767Z,71.50
2024-01-28T09:11:03.108Z,70.90
2024-01-28T09:13:30.662Z,69.50
2024-01-28T09:15:57.989Z,70.00
2024-01-28T09:18:25.518Z,69.50
2024-01-28T09:20:53.047Z,69.00
2024-01-28T09:23:20.633Z,67.90
2024-01-28T09:25:47.960Z,66.10
2024-01-28T09:28:15.584Z,65.70
2024-01-28T09:30:43.577Z,65.00
2024-01-28T09:33:12.133Z,64.30
2024-01-28T09:35:41.175Z,63.70
2024-01-28T09:38:08.854Z,63.70
2024-01-28T09:40:36.659Z,63.00
2024-01-28T09:43:16.917Z,61.70
2024-01-28T09:45:45.147Z,61.30
2024-01-28T09:48:13.807Z,61.20
2024-01-28T09:50:41.576Z,60.20
2024-01-28T09:53:09.135Z,59.30
2024-01-28T09:55:36.501Z,59.20
2024-01-28T09:58:04.112Z,58.40
2024-01-28T10:00:31.637Z,58.30
2024-01-28T10:02:59.015Z,58.40
2024-01-28T10:05:26.660Z,57.90
2024-01-28T10:08:05.550Z,57.20
2024-01-28T10:10:37.074Z,57.30
2024-01-28T10:13:05.146Z,56.70
2024-01-28T10:15:32.828Z,56.20
2024-01-28T10:18:00.685Z,54.90
2024-01-28T10:20:30.027Z,55.50
2024-01-28T10:22:57.425Z,54.60
2024-01-28T10:25:27.231Z,54.60
2024-01-28T10:27:54.864Z,54.30
2024-01-28T10:30:23.556Z,53.60
2024-01-28T10:32:51.508Z,54.50
2024-01-28T10:35:19.021Z,55.50
2024-01-28T10:37:53.750Z,55.40
2024-01-28T10:40:22.266Z,55.00
2024-01-28T10:42:55.738Z,55.30
2024-01-28T10:45:28.846Z,57.10
2024-01-28T10:48:00.347Z,56.80
2024-01-28T10:50:33.594Z,57.80
2024-01-28T10:53:02.633Z,58.90
2024-01-28T10:55:31.935Z,59.10
2024-01-28T10:58:00.800Z,58.80
2024-01-28T11:00:30.399Z,58.90
2024-01-28T11:03:00.548Z,58.60
2024-01-28T11:05:28.857Z,58.50
2024-01-28T11:08:01.449Z,58.10
2024-01-28T11:10:29.811Z,59.00
2024-01-28T11:12:58.271Z,58.30
2024-01-28T11:15:27.678Z,58.60
2024-01-28T11:17:56.576Z,58.60
2024-01-28T11:20:30.175Z,59.10
2024-01-28T11:23:02.875Z,58.10
2024-01-28T11:25:31.595Z,58.20
2024-01-28T11:28:06.789Z,58.10
2024-01-28T11:30:36.153Z,58.10
2024-01-28T11:33:17.903Z,57.70
2024-01-28T11:35:46.723Z,56.70
2024-01-28T11:38:26.350Z,54.80
2024-01-28T11:41:01.020Z,54.40
2024-01-28T11:43:28.866Z,58.00
2024-01-28T11:45:58.672Z,59.30
2024-01-28T11:48:26.640Z,61.90
2024-01-28T11:50:55.308Z,63.10
2024-01-28T11:53:22.812Z,64.40
2024-01-28T11:55:50.596Z,63.70
2024-01-28T11:58:20.779Z,62.80
2024-01-28T12:00:48.441Z,62.10
2024-01-28T12:03:16.500Z,61.50
2024-01-28T12:05:44.129Z,60.40
2024-01-28T12:08:11.800Z,58.70
2024-01-28T12:10:39.521Z,58.50
2024-01-28T12:13:07.314Z,58.10
2024-01-28T12:15:34.941Z,57.90
2024-01-28T12:18:02.540Z,55.00
2024-01-28T12:20:32.242Z,54.20
2024-01-28T12:22:59.684Z,52.90
2024-01-28T12:25:27.284Z,52.40
2024-01-28T12:27:55.265Z,50.60
2024-01-28T12:30:23.428Z,50.60
2024-01-28T12:32:52.309Z,49.70
2024-01-28T12:35:20.092Z,48.60
2024-01-28T12:37:49.070Z,48.60
2024-01-28T12:40:16.821Z,47.50
2024-01-28T12:42:45.823Z,46.60
2024-01-28T12:45:13.648Z,46.80
2024-01-28T12:47:44.401Z,46.20
2024-01-28T12:50:12.217Z,46.80
2024-01-28T12:52:39.822Z,46.70
2024-01-28T12:55:08.277Z,47.70
2024-01-28T12:57:37.725Z,47.80
2024-01-28T13:00:08.062Z,46.50
2024-01-28T13:02:36.252Z,47.00
2024-01-28T13:05:06.015Z,46.70
2024-01-28T13:07:33.780Z,47.50
2024-01-28T13:10:01.189Z,48.90
2024-01-28T13:12:34.914Z,47.60
2024-01-28T13:15:06.664Z,48.20
2024-01-28T13:17:35.909Z,48.10
2024-01-28T13:20:05.179Z,50.80
2024-01-28T13:22:35.642Z,51.30
2024-01-28T13:25:03.531Z,51.90
2024-01-28T13:27:31.141Z,51.60
2024-01-28T13:29:58.621Z,52.20
2024-01-28T13:32:26.071Z,52.20
2024-01-28T13:34:53.820Z,52.60
2024-01-28T13:37:21.338Z,53.90
2024-01-28T13:39:48.961Z,54.00
2024-01-28T13:42:16.623Z,54.70
2024-01-28T13:44:44.053Z,54.90
2024-01-28T13:47:11.593Z,54.80
2024-01-28T13:49:39.326Z,55.80
2024-01-28T13:52:07.163Z,56.20
2024-01-28T13:54:34.572Z,57.00
2024-01-28T13:57:02.703Z,57.10
2024-01-28T13:59:30.183Z,56.70
2024-01-28T14:01:57.810Z,57.50
2024-01-28T14:04:25.595Z,58.10
2024-01-28T14:06:53.350Z,59.00
2024-01-28T14:09:20.948Z,60.50
2024-01-28T14:11:48.647Z,59.80
2024-01-28T14:14:19.007Z,60.00
2024-01-28T14:16:46.506Z,59.90
2024-01-28T14:19:14.101Z,59.70
2024-01-28T14:21:41.669Z,59.00
2024-01-28T14:24:10.704Z,59.70
2024-01-28T14:26:38.609Z,60.40
2024-01-28T14:29:06.026Z,60.80
2024-01-28T14:31:34.256Z,60.30
2024-01-28T14:34:02.297Z,59.80
2024-01-28T14:36:32.592Z,60.20
2024-01-28T14:39:00.246Z,59.80
2024-01-28T14:41:27.706Z,60.30
2024-01-28T14:43:56.558Z,60.10
2024-01-28T14:46:23.912Z,60.50
2024-01-28T14:48:53.992Z,60.00
2024-01-28T14:51:21.526Z,60.00
2024-01-28T14:53:48.940Z,60.20
2024-01-28T14:56:16.525Z,60.80
2024-01-28T14:58:44.181Z,60.70
2024-01-28T15:01:11.675Z,60.60
2024-01-28T15:03:39.140Z,60.60
2024-01-28T15:06:07.100Z,60.40
2024-01-28T15:08:36.119Z,60.50
2024-01-28T15:11:05.395Z,60.40
2024-01-28T15:13:33.126Z,60.80
2024-01-28T15:16:00.973Z,61.60
2024-01-28T15:18:28.559Z,61.40
2024-01-28T15:20:56.447Z,61.30
2024-01-28T15:23:23.918Z,62.30
2024-01-28T15:25:51.433Z,62.50
2024-01-28T15:28:25.104Z,62.90
2024-01-28T15:30:54.413Z,63.40
2024-01-28T15:33:23.640Z,63.40
2024-01-28T15:35:53.941Z,63.70
2024-01-28T15:38:21.953Z,64.00
2024-01-28T15:40:49.292Z,62.80
2024-01-28T15:43:16.775Z,63.40
2024-01-28T15:45:44.204Z,63.60
2024-01-28T15:48:11.744Z,64.10
2024-01-28T15:50:39.157Z,63.60
2024-01-28T15:53:06.743Z,63.70
2024-01-28T15:55:34.277Z,64.00
2024-01-28T15:58:02.519Z,62.00
2024-01-28T16:00:29.996Z,61.40
2024-01-28T16:02:57.407Z,61.60
2024-01-28T16:05:25.160Z,62.30
2024-01-28T16:07:53.507Z,61.90
2024-01-28T16:10:21.094Z,61.30
2024-01-28T16:12:50.008Z,61.50
2024-01-28T16:15:17.650Z,61.60
2024-01-28T16:17:47.522Z,61.60
2024-01-28T16:20:15.345Z,61.50
2024-01-28T16:22:42.674Z,61.70
2024-01-28T16:25:10.421Z,61.70
2024-01-28T16:27:38.133Z,61.60
2024-01-28T16:30:06.046Z,61.30
2024-01-28T16:32:33.533Z,61.40
2024-01-28T16:35:02.767Z,61.70
2024-01-28T16:37:31.756Z,62.10
2024-01-28T16:39:59.199Z,62.40
2024-01-28T16:42:26.797Z,62.90
2024-01-28T16:44:54.440Z,63.10
2024-01-28T16:47:21.882Z,63.70
2024-01-28T16:49:49.335Z,63.50
2024-01-28T16:52:21.530Z,63.70
2024-01-28T16:54:49.632Z,64.10
2024-01-28T16:57:17.551Z,64.00
2024-01-28T16:59:45.117Z,64.30
2024-01-28T17:02:12.682Z,65.00
2024-01-28T17:04:40.171Z,65.60
2024-01-28T17:07:08.333Z,65.90
2024-01-28T17:09:35.911Z,66.40
2024-01-28T17:12:03.350Z,67.20
2024-01-28T17:14:30.870Z,67.40
2024-01-28T17:16:58.297Z,67.60
2024-01-28T17:19:25.743Z,68.10
2024-01-28T17:21:54.226Z,68.30
2024-01-28T17:24:23.471Z,68.60
2024-01-28T17:26:52.265Z,68.50
2024-01-28T17:29:19.560Z,68.50
2024-01-28T17:31:49.826Z,68.40
2024-01-28T17:34:17.337Z,68.40
2024-01-28T17:36:45.885Z,68.50
2024-01-28T17:39:14.504Z,68.70
2024-01-28T17:41:42.004Z,68.80
2024-01-28T17:44:09.583Z,68.70
2024-01-28T17:46:37.040Z,68.80
2024-01-28T17:49:05.960Z,68.90
2024-01-28T17:51:33.589Z,69.00
2024-01-28T17:54:01.019Z,69.20
2024-01-28T17:56:28.600Z,69.40
2024-01-28T17:58:56.091Z,69.90
2024-01-28T18:01:25.391Z,70.30
2024-01-28T18:03:53.030Z,70.30
2024-01-28T18:06:20.769Z,70.80
2024-01-28T18:08:48.145Z,70.60
2024-01-28T18:11:17.018Z,70.80
2024-01-28T18:13:44.476Z,70.90
2024-01-28T18:16:14.455Z,71.20
2024-01-28T18:18:43.147Z,71.40
2024-01-28T18:21:12.643Z,71.50
2024-01-28T18:23:41.098Z,71.30
2024-01-28T18:26:09.175Z,71.20
2024-01-28T18:28:37.629Z,71.30
2024-01-28T18:31:05.713Z,71.40
2024-01-28T18:33:37.960Z,71.70
2024-01-28T18:36:07.164Z,71.80
2024-01-28T18:38:34.872Z,72.10
2024-01-28T18:41:03.011Z,72.10
2024-01-28T18:43:32.091Z,72.00
2024-01-28T18:45:59.839Z,72.00
2024-01-28T18:48:27.361Z,72.30
2024-01-28T18:50:55.054Z,72.50
2024-01-28T18:53:23.243Z,72.60
2024-01-28T18:55:50.834Z,72.50
2024-01-28T18:58:18.301Z,72.60
2024-01-28T19:00:49.217Z,72.60
2024-01-28T19:03:18.154Z,72.80
2024-01-28T19:05:47.197Z,72.70
2024-01-28T19:08:16.145Z,73.00
2024-01-28T19:10:44.796Z,73.30
2024-01-28T19:13:12.536Z,73.20
2024-01-28T19:15:42.424Z,73.40
2024-01-28T19:18:09.899Z,73.50
2024-01-28T19:20:37.717Z,73.60
2024-01-28T19:23:09.184Z,73.90
2024-01-28T19:25:43.080Z,74.20
2024-01-28T19:28:10.885Z,74.40
2024-01-28T19:30:38.504Z,74.80
2024-01-28T19:33:07.969Z,75.30
2024-01-28T19:35:35.303Z,75.10
2024-01-28T19:38:02.932Z,75.20
2024-01-28T19:40:30.489Z,75.30
2024-01-28T19:42:58.206Z,75.60
2024-01-28T19:45:26.353Z,75.50
2024-01-28T19:47:54.107Z,75.60
2024-01-28T19:50:21.458Z,75.20
2024-01-28T19:52:48.862Z,75.30
2024-01-28T19:55:19.281Z,75.60
2024-01-28T19:57:46.779Z,75.60
2024-01-28T20:00:15.852Z,75.30
2024-01-28T20:02:43.406Z,74.90
2024-01-28T20:05:11.326Z,74.30
2024-01-28T20:07:38.938Z,74.30
2024-01-28T20:10:07.061Z,73.70
2024-01-28T20:12:37.255Z,73.60
2024-01-28T20:15:09.249Z,73.80
2024-01-28T20:17:37.374Z,73.80
2024-01-28T20:20:06.779Z,74.10
2024-01-28T20:22:34.295Z,74.00
2024-01-28T20:25:01.956Z,73.20
2024-01-28T20:27:29.465Z,72.70
2024-01-28T20:29:56.789Z,72.40
2024-01-28T20:32:24.234Z,72.40
2024-01-28T20:34:51.767Z,72.20
2024-01-28T20:37:19.845Z,71.60
2024-01-28T20:39:47.298Z,71.30
2024-01-28T20:42:14.817Z,71.40
2024-01-28T20:44:42.281Z,71.50
2024-01-28T20:47:16.826Z,71.20
2024-01-28T20:49:45.317Z,70.10
2024-01-28T20:52:12.723Z,67.10
2024-01-28T20:54:40.168Z,65.40
2024-01-28T20:57:10.699Z,62.50
2024-01-28T20:59:46.168Z,61.20
2024-01-28T21:02:17.320Z,60.50
2024-01-28T21:04:45.547Z,60.30
2024-01-28T21:07:13.137Z,60.30
2024-01-28T21:09:43.513Z,60.50
2024-01-28T21:12:11.319Z,60.80
2024-01-28T21:14:38.834Z,61.20
2024-01-28T21:17:06.728Z,61.80
2024-01-28T21:19:34.194Z,61.80
2024-01-28T21:22:03.594Z,62.00
2024-01-28T21:24:31.116Z,62.20
2024-01-28T21:26:58.475Z,62.40
2024-01-28T21:29:26.052Z,62.50
2024-01-28T21:31:53.680Z,62.50
2024-01-28T21:34:21.440Z,62.60
2024-01-28T21:36:48.980Z,62.60
2024-01-28T21:39:16.646Z,62.70
2024-01-28T21:41:45.832Z,62.00
2024-01-28T21:44:13.529Z,61.50
2024-01-28T21:46:40.814Z,61.10
2024-01-28T21:49:08.332Z,61.20
2024-01-28T21:51:36.703Z,61.60
2024-01-28T21:54:04.273Z,62.30
2024-01-28T21:56:31.578Z,62.60
2024-01-28T21:58:59.096Z,62.60
2024-01-28T22:01:26.569Z,62.70
2024-01-28T22:03:54.444Z,62.40
2024-01-28T22:06:23.080Z,62.20
2024-01-28T22:08:50.503Z,62.40
2024-01-28T22:11:17.832Z,62.60
2024-01-28T22:13:45.226Z,62.80
2024-01-28T22:16:12.662Z,62.60
2024-01-28T22:18:40.224Z,63.40
2024-01-28T22:21:07.626Z,64.50
2024-01-28T22:23:35.525Z,64.40
2024-01-28T22:26:02.877Z,64.80
2024-01-28T22:28:31.077Z,65.30
2024-01-28T22:31:00.018Z,64.70
2024-01-28T22:33:27.634Z,64.50
2024-01-28T22:35:55.129Z,64.30
2024-01-28T22:38:22.576Z,64.00
2024-01-28T22:40:50.346Z,64.00
2024-01-28T22:43:18.254Z,64.20
2024-01-28T22:45:47.038Z,64.30
2024-01-28T22:48:14.542Z,64.30
2024-01-28T22:50:41.966Z,64.60
2024-01-28T22:53:09.439Z,64.50
2024-01-28T22:55:36.769Z,64.70
2024-01-28T22:58:04.381Z,65.10
2024-01-28T23:00:34.616Z,64.90
2024-01-28T23:03:04.432Z,65.20
2024-01-28T23:05:32.372Z,65.40
2024-01-28T23:08:00.024Z,65.60
2024-01-28T23:10:28.022Z,65.70
2024-01-28T23:12:55.798Z,65.50
2024-01-28T23:15:24.516Z,65.40
2024-01-28T23:17:53.342Z,65.60
2024-01-28T23:20:20.963Z,65.70
2024-01-28T23:22:49.079Z,65.80
2024-01-28T23:25:16.657Z,65.80
2024-01-28T23:27:45.473Z,66.00
2024-01-28T23:30:13.462Z,66.30
2024-01-28T23:32:41.043Z,66.30
2024-01-28T23:35:08.807Z,66.40
2024-01-28T23:37:36.255Z,66.70
2024-01-28T23:40:07.859Z,66.40
2024-01-28T23:42:35.441Z,66.20
2024-01-28T23:45:04.171Z,66.40
2024-01-28T23:47:31.824Z,66.60
2024-01-28T23:49:59.651Z,66.60
2024-01-28T23:52:27.006Z,66.70
2024-01-28T23:54:55.421Z,66.80
2024-01-28T23:57:23.021Z,67.10
2024-01-28T23:59:50.486Z,67.50
